createdAt,value
2022-08-30T00:01:31.616Z,4.93
2022-08-30T00:04:00.338Z,5.00
2022-08-30T00:06:29.283Z,5.18
2022-08-30T00:08:57.153Z,6.60
2022-08-30T00:11:27.935Z,5.63
2022-08-30T00:13:57.363Z,5.47
2022-08-30T00:16:26.482Z,4.85
2022-08-30T00:18:53.836Z,7.53
2022-08-30T00:21:21.747Z,4.97
2022-08-30T00:23:48.547Z,5.22
2022-08-30T00:26:15.444Z,4.65
2022-08-30T00:28:42.303Z,4.85
2022-08-30T00:31:09.159Z,5.10
2022-08-30T00:33:36.869Z,5.50
2022-08-30T00:36:03.885Z,6.30
2022-08-30T00:38:30.671Z,7.22
2022-08-30T00:40:59.593Z,4.32
2022-08-30T00:43:30.782Z,6.40
2022-08-30T00:45:57.855Z,5.95
2022-08-30T00:48:24.879Z,7.20
2022-08-30T00:51:04.620Z,5.57
2022-08-30T00:53:38.712Z,7.35
2022-08-30T00:56:06.522Z,8.00
2022-08-30T00:58:41.696Z,6.68
2022-08-30T01:01:09.548Z,4.70
2022-08-30T01:03:38.693Z,5.25
2022-08-30T01:06:07.518Z,5.50
2022-08-30T01:08:35.447Z,5.82
2022-08-30T01:11:04.163Z,6.28
2022-08-30T01:13:34.211Z,6.25
2022-08-30T01:16:02.495Z,5.10
2022-08-30T01:18:31.298Z,6.10
2022-08-30T01:21:16.870Z,6.25
2022-08-30T01:23:47.509Z,4.95
2022-08-30T01:26:17.280Z,6.88
2022-08-30T01:28:57.944Z,5.47
2022-08-30T01:31:27.040Z,5.35
2022-08-30T01:33:53.878Z,5.68
2022-08-30T01:36:21.293Z,6.20
2022-08-30T01:38:56.952Z,5.90
2022-08-30T01:41:32.643Z,5.25
2022-08-30T01:44:06.076Z,5.78
2022-08-30T01:46:39.210Z,5.38
2022-08-30T01:49:10.880Z,7.47
2022-08-30T01:51:38.868Z,6.50
2022-08-30T01:54:06.850Z,7.57
2022-08-30T01:56:34.260Z,7.18
2022-08-30T01:59:03.173Z,5.40
2022-08-30T02:01:36.790Z,6.75
2022-08-30T02:04:04.386Z,6.15
2022-08-30T02:06:31.609Z,6.47
2022-08-30T02:08:59.274Z,9.15
2022-08-30T02:11:26.687Z,6.60
2022-08-30T02:13:53.625Z,6.03
2022-08-30T02:16:22.912Z,6.78
2022-08-30T02:18:52.612Z,5.72
2022-08-30T02:21:20.682Z,9.63
2022-08-30T02:23:47.672Z,7.45
2022-08-30T02:26:16.023Z,7.78
2022-08-30T02:28:49.561Z,8.35
2022-08-30T02:31:20.756Z,8.90
2022-08-30T02:33:51.724Z,7.57
2022-08-30T02:36:20.961Z,7.57
2022-08-30T02:38:49.619Z,7.32
2022-08-30T02:41:17.930Z,7.97
2022-08-30T02:43:44.752Z,9.68
2022-08-30T02:46:11.791Z,6.65
2022-08-30T02:48:38.596Z,5.95
2022-08-30T02:51:12.712Z,7.18
2022-08-30T02:53:41.788Z,6.00
2022-08-30T02:56:09.129Z,7.25
2022-08-30T02:58:37.137Z,6.25
2022-08-30T03:01:05.651Z,7.80
2022-08-30T03:03:32.611Z,6.82
2022-08-30T03:05:59.431Z,6.97
2022-08-30T03:08:26.324Z,6.75
2022-08-30T03:10:53.098Z,8.10
2022-08-30T03:13:19.914Z,6.35
2022-08-30T03:15:49.002Z,9.00
2022-08-30T03:18:17.271Z,8.27
2022-08-30T03:20:53.911Z,7.35
2022-08-30T03:23:22.517Z,8.35
2022-08-30T03:25:49.373Z,8.18
2022-08-30T03:28:16.165Z,8.15
2022-08-30T03:30:43.022Z,7.78
2022-08-30T03:33:09.838Z,11.18
2022-08-30T03:35:38.283Z,7.82
2022-08-30T03:38:05.732Z,8.82
2022-08-30T03:40:32.833Z,6.82
2022-08-30T03:42:59.693Z,9.13
2022-08-30T03:45:26.564Z,7.35
2022-08-30T03:47:53.476Z,10.52
2022-08-30T03:50:20.360Z,8.77
2022-08-30T03:52:47.380Z,9.52
2022-08-30T03:55:14.704Z,8.52
2022-08-30T03:57:43.580Z,10.05
2022-08-30T04:00:12.643Z,8.45
2022-08-30T04:02:40.192Z,10.05
2022-08-30T04:05:09.287Z,10.30
2022-08-30T04:07:36.435Z,10.30
2022-08-30T04:10:06.775Z,8.88
2022-08-30T04:12:33.648Z,9.00
2022-08-30T04:15:00.456Z,9.25
2022-08-30T04:17:27.502Z,10.07
2022-08-30T04:19:54.452Z,7.45
2022-08-30T04:22:21.931Z,9.52
2022-08-30T04:24:48.784Z,10.10
2022-08-30T04:27:15.716Z,10.18
2022-08-30T04:29:43.560Z,10.10
2022-08-30T04:32:10.426Z,8.85
2022-08-30T04:34:38.236Z,9.90
2022-08-30T04:37:05.226Z,9.77
2022-08-30T04:39:32.295Z,9.68
2022-08-30T04:41:59.197Z,10.00
2022-08-30T04:44:27.392Z,11.48
2022-08-30T04:46:54.501Z,9.38
2022-08-30T04:49:21.577Z,9.98
2022-08-30T04:51:48.700Z,13.32
2022-08-30T04:54:15.467Z,9.32
2022-08-30T04:56:43.587Z,11.00
2022-08-30T04:59:10.540Z,10.70
2022-08-30T05:01:44.874Z,10.95
2022-08-30T05:04:14.437Z,11.02
2022-08-30T05:06:42.049Z,11.23
2022-08-30T05:09:08.906Z,11.27
2022-08-30T05:11:35.700Z,11.40
2022-08-30T05:14:02.496Z,10.70
2022-08-30T05:16:29.363Z,9.88
2022-08-30T05:18:56.347Z,11.30
2022-08-30T05:21:26.533Z,9.00
2022-08-30T05:23:56.687Z,10.32
2022-08-30T05:26:37.307Z,10.80
2022-08-30T05:29:04.507Z,12.65
2022-08-30T05:31:36.469Z,8.52
2022-08-30T05:34:05.176Z,12.07
2022-08-30T05:36:36.258Z,9.82
2022-08-30T05:39:05.738Z,7.53
2022-08-30T05:41:33.330Z,8.40
2022-08-30T05:44:03.911Z,8.27
2022-08-30T05:49:07.811Z,9.75
2022-08-30T05:51:41.157Z,7.88
2022-08-30T05:54:15.576Z,10.07
2022-08-30T05:56:45.464Z,9.13
2022-08-30T05:59:14.073Z,11.63
2022-08-30T06:01:47.525Z,7.75
2022-08-30T06:04:14.792Z,11.45
2022-08-30T06:06:44.029Z,8.93
2022-08-30T06:09:14.020Z,8.45
2022-08-30T06:11:41.343Z,9.75
2022-08-30T06:14:08.488Z,9.00
2022-08-30T06:16:39.189Z,11.00
2022-08-30T06:19:08.760Z,12.05
2022-08-30T06:21:37.966Z,8.52
2022-08-30T06:24:07.935Z,8.45
2022-08-30T06:26:41.259Z,9.20
2022-08-30T06:29:11.115Z,7.32
2022-08-30T06:31:38.238Z,10.73
2022-08-30T06:34:06.064Z,8.25
2022-08-30T06:36:34.052Z,7.00
2022-08-30T06:39:00.936Z,7.25
2022-08-30T06:41:31.638Z,6.40
2022-08-30T06:44:01.734Z,6.75
2022-08-30T06:46:32.584Z,7.68
2022-08-30T06:49:00.377Z,7.13
2022-08-30T06:51:31.926Z,10.55
2022-08-30T06:54:02.910Z,6.88
2022-08-30T06:56:31.114Z,7.40
2022-08-30T06:58:58.388Z,6.07
2022-08-30T07:01:28.322Z,5.75
2022-08-30T07:03:56.198Z,4.78
2022-08-30T07:06:25.366Z,6.28
2022-08-30T07:08:55.884Z,6.78
2022-08-30T07:11:34.759Z,7.35
2022-08-30T07:14:02.982Z,6.07
2022-08-30T07:16:30.355Z,7.70
2022-08-30T07:18:58.650Z,4.25
2022-08-30T07:21:37.671Z,6.65
2022-08-30T07:24:08.869Z,4.53
2022-08-30T07:26:48.790Z,11.93
2022-08-30T07:29:17.136Z,3.97
2022-08-30T07:31:44.592Z,3.25
2022-08-30T07:34:11.370Z,3.35
2022-08-30T07:36:39.984Z,4.50
2022-08-30T07:39:08.226Z,5.28
2022-08-30T07:41:38.795Z,4.38
2022-08-30T07:44:08.144Z,4.93
2022-08-30T07:46:36.644Z,5.30
2022-08-30T07:49:04.657Z,3.10
2022-08-30T07:51:37.976Z,4.07
2022-08-30T07:54:04.914Z,4.15
2022-08-30T07:56:31.680Z,3.30
2022-08-30T07:58:58.755Z,3.38
2022-08-30T08:01:25.711Z,4.35
2022-08-30T08:03:52.856Z,4.93
2022-08-30T08:06:22.203Z,9.85
2022-08-30T08:08:50.630Z,1.77
2022-08-30T08:11:30.413Z,4.10
2022-08-30T08:13:59.936Z,3.88
2022-08-30T08:16:30.781Z,4.90
2022-08-30T08:18:57.807Z,2.85
2022-08-30T08:21:26.398Z,4.05
2022-08-30T08:23:53.731Z,2.17
2022-08-30T08:26:21.844Z,3.60
2022-08-30T08:28:48.843Z,2.45
2022-08-30T08:31:27.353Z,5.70
2022-08-30T08:34:02.611Z,3.13
2022-08-30T08:36:31.182Z,1.85
2022-08-30T08:38:58.780Z,4.05
2022-08-30T08:42:03.948Z,4.90
2022-08-30T08:44:59.643Z,5.13
2022-08-30T08:47:38.419Z,4.15
2022-08-30T08:50:18.551Z,5.03
2022-08-30T08:53:50.430Z,2.25
2022-08-30T08:56:19.835Z,3.55
2022-08-30T08:58:52.931Z,2.03
2022-08-30T09:01:27.959Z,2.22
2022-08-30T09:03:58.234Z,2.33
2022-08-30T09:07:02.702Z,1.85
2022-08-30T09:09:37.535Z,3.22
2022-08-30T09:12:08.012Z,1.40
2022-08-30T09:14:50.054Z,1.45
2022-08-30T09:17:23.273Z,2.05
2022-08-30T09:19:53.119Z,1.50
2022-08-30T09:22:31.483Z,3.20
2022-08-30T09:25:13.251Z,3.72
2022-08-30T09:27:45.606Z,2.13
2022-08-30T09:30:18.756Z,3.50
2022-08-30T09:32:54.287Z,2.55
2022-08-30T09:35:34.481Z,3.78
2022-08-30T09:38:08.521Z,2.05
2022-08-30T09:40:40.217Z,3.60
2022-08-30T09:43:31.463Z,3.35
2022-08-30T09:46:01.263Z,2.72
2022-08-30T09:48:40.704Z,7.10
2022-08-30T09:51:10.488Z,4.60
2022-08-30T09:54:26.445Z,1.60
2022-08-30T09:57:34.040Z,2.85
2022-08-30T10:00:24.084Z,2.33
2022-08-30T10:03:35.196Z,2.75
2022-08-30T10:06:30.951Z,5.00
2022-08-30T10:09:55.765Z,2.90
2022-08-30T10:13:01.368Z,5.28
2022-08-30T10:15:51.441Z,4.68
2022-08-30T10:18:36.506Z,1.73
2022-08-30T10:21:37.161Z,2.15
2022-08-30T10:24:10.576Z,2.08
2022-08-30T10:26:52.962Z,3.22
2022-08-30T10:29:31.526Z,2.47
2022-08-30T10:32:34.570Z,2.72
2022-08-30T10:35:19.642Z,2.10
2022-08-30T10:37:54.625Z,2.80
2022-08-30T10:40:53.185Z,3.08
2022-08-30T10:43:51.087Z,4.53
2022-08-30T10:46:54.137Z,1.52
2022-08-30T10:49:28.948Z,1.92
2022-08-30T10:52:04.815Z,3.78
2022-08-30T10:55:14.305Z,2.28
2022-08-30T10:57:43.064Z,2.08
2022-08-30T11:00:16.759Z,3.40
2022-08-30T11:03:28.979Z,6.68
2022-08-30T11:06:32.200Z,2.55
2022-08-30T11:09:11.481Z,3.22
2022-08-30T11:12:21.300Z,2.25
2022-08-30T11:14:48.903Z,5.05
2022-08-30T11:17:29.152Z,2.17
2022-08-30T11:20:00.736Z,3.17
2022-08-30T11:22:39.092Z,2.78
2022-08-30T11:25:38.286Z,2.95
2022-08-30T11:28:06.288Z,1.75
2022-08-30T11:30:33.003Z,3.58
2022-08-30T11:33:24.736Z,3.08
2022-08-30T11:35:53.657Z,2.35
2022-08-30T11:38:26.241Z,2.47
2022-08-30T11:40:56.142Z,4.45
2022-08-30T11:43:36.556Z,2.90
2022-08-30T11:46:27.537Z,3.53
2022-08-30T11:49:19.972Z,2.92
2022-08-30T11:55:17.392Z,2.75
2022-08-30T11:58:16.854Z,4.78
2022-08-30T12:00:51.608Z,4.05
2022-08-30T12:03:20.714Z,5.18
2022-08-30T12:05:58.991Z,3.13
2022-08-30T12:08:34.906Z,2.97
2022-08-30T12:11:10.905Z,3.53
2022-08-30T12:13:37.660Z,4.10
2022-08-30T12:16:24.998Z,2.45
2022-08-30T12:19:09.227Z,4.00
2022-08-30T12:21:44.873Z,3.17
2022-08-30T12:24:20.838Z,4.50
2022-08-30T12:26:51.331Z,3.47
2022-08-30T12:29:29.023Z,5.25
2022-08-30T12:32:03.465Z,2.10
2022-08-30T12:34:48.107Z,5.65
2022-08-30T12:37:27.480Z,2.30
2022-08-30T12:40:16.560Z,4.50
2022-08-30T12:43:07.801Z,1.90
2022-08-30T12:45:45.202Z,4.57
2022-08-30T12:48:19.772Z,2.80
2022-08-30T12:50:56.658Z,4.00
2022-08-30T12:53:29.651Z,4.38
2022-08-30T12:56:06.883Z,5.00
2022-08-30T12:58:54.083Z,4.22
2022-08-30T13:01:36.945Z,3.15
2022-08-30T13:04:26.694Z,3.40
2022-08-30T13:06:58.506Z,4.65
2022-08-30T13:09:42.627Z,3.25
2022-08-30T13:12:26.573Z,2.60
2022-08-30T13:15:09.825Z,3.45
2022-08-30T13:17:36.629Z,5.43
2022-08-30T13:20:20.256Z,3.42
2022-08-30T13:23:08.193Z,2.35
2022-08-30T13:25:38.953Z,4.15
2022-08-30T13:28:07.944Z,2.33
2022-08-30T13:30:35.424Z,1.70
2022-08-30T13:33:02.933Z,4.38
2022-08-30T13:35:31.631Z,2.85
2022-08-30T13:38:01.824Z,6.03
2022-08-30T13:40:28.733Z,2.08
2022-08-30T13:42:56.981Z,4.63
2022-08-30T13:45:41.598Z,2.55
2022-08-30T13:48:11.293Z,1.77
2022-08-30T13:50:39.443Z,3.38
2022-08-30T13:53:08.876Z,2.67
2022-08-30T13:55:39.233Z,4.18
2022-08-30T13:58:07.663Z,2.55
2022-08-30T14:00:36.956Z,3.35
2022-08-30T14:03:05.025Z,5.90
2022-08-30T14:05:48.907Z,4.00
2022-08-30T14:11:18.642Z,3.10
2022-08-30T14:16:36.559Z,3.53
2022-08-30T14:19:04.715Z,2.08
2022-08-30T14:21:32.890Z,2.60
2022-08-30T14:24:00.082Z,2.47
2022-08-30T14:26:47.466Z,1.70
2022-08-30T14:29:22.282Z,2.05
2022-08-30T14:31:49.484Z,3.40
2022-08-30T14:34:17.297Z,2.08
2022-08-30T14:36:46.400Z,2.30
2022-08-30T14:39:19.610Z,4.10
2022-08-30T14:41:51.810Z,2.83
2022-08-30T14:44:22.342Z,2.97
2022-08-30T14:46:50.977Z,3.42
2022-08-30T14:49:19.550Z,2.08
2022-08-30T14:51:48.424Z,2.60
2022-08-30T14:54:18.975Z,2.63
2022-08-30T14:56:46.435Z,3.42
2022-08-30T14:59:13.763Z,3.80
2022-08-30T15:01:42.138Z,2.08
2022-08-30T15:04:11.018Z,2.92
2022-08-30T15:06:40.840Z,2.75
2022-08-30T15:09:12.340Z,2.15
2022-08-30T15:11:39.557Z,2.38
2022-08-30T15:14:06.985Z,3.28
2022-08-30T15:16:37.427Z,3.60
2022-08-30T15:19:09.350Z,1.55
2022-08-30T15:21:44.017Z,3.47
2022-08-30T15:24:16.580Z,2.92
2022-08-30T15:26:44.138Z,5.25
2022-08-30T15:29:17.602Z,3.55
2022-08-30T15:31:49.666Z,2.58
2022-08-30T15:34:20.183Z,1.88
2022-08-30T15:36:48.909Z,2.60
2022-08-30T15:39:19.318Z,6.68
2022-08-30T15:41:54.593Z,4.07
2022-08-30T15:44:24.035Z,2.38
2022-08-30T15:46:50.947Z,4.40
2022-08-30T15:49:22.381Z,2.22
2022-08-30T15:51:53.886Z,3.00
2022-08-30T15:54:23.939Z,2.85
2022-08-30T15:56:58.732Z,1.92
2022-08-30T15:59:30.903Z,3.10
2022-08-30T16:01:58.476Z,2.03
2022-08-30T16:04:26.548Z,3.78
2022-08-30T16:06:53.779Z,1.92
2022-08-30T16:09:21.805Z,4.85
2022-08-30T16:11:49.144Z,2.60
2022-08-30T16:14:16.251Z,2.45
2022-08-30T16:16:43.405Z,1.50
2022-08-30T16:19:10.481Z,4.50
2022-08-30T16:21:38.337Z,1.95
2022-08-30T16:24:10.569Z,5.43
2022-08-30T16:26:42.501Z,3.78
2022-08-30T16:29:11.047Z,3.92
2022-08-30T16:31:38.357Z,3.78
2022-08-30T16:34:06.695Z,4.55
2022-08-30T16:36:35.852Z,2.92
2022-08-30T16:39:08.229Z,3.55
2022-08-30T16:41:37.096Z,2.22
2022-08-30T16:44:05.535Z,1.92
2022-08-30T16:46:34.717Z,1.55
2022-08-30T16:49:02.343Z,2.35
2022-08-30T16:51:31.613Z,1.38
2022-08-30T16:54:03.475Z,2.65
2022-08-30T16:56:33.765Z,1.77
2022-08-30T16:59:03.312Z,3.40
2022-08-30T17:01:37.323Z,2.10
2022-08-30T17:04:07.947Z,2.47
2022-08-30T17:06:35.930Z,5.60
2022-08-30T17:09:05.498Z,4.50
2022-08-30T17:11:34.692Z,2.25
2022-08-30T17:14:02.159Z,2.53
2022-08-30T17:16:29.870Z,3.40
2022-08-30T17:18:59.836Z,1.85
2022-08-30T17:21:29.687Z,1.98
2022-08-30T17:24:01.426Z,1.98
2022-08-30T17:26:33.153Z,1.52
2022-08-30T17:29:00.592Z,3.42
2022-08-30T17:31:30.627Z,1.88
2022-08-30T17:34:03.500Z,5.00
2022-08-30T17:36:35.395Z,2.15
2022-08-30T17:39:10.335Z,4.18
2022-08-30T17:41:37.788Z,1.80
2022-08-30T17:44:05.423Z,3.00
2022-08-30T17:46:33.644Z,1.50
2022-08-30T17:49:01.226Z,2.60
2022-08-30T17:51:30.338Z,2.50
2022-08-30T17:53:58.528Z,1.80
2022-08-30T17:56:33.977Z,3.38
2022-08-30T17:59:04.803Z,4.78
2022-08-30T18:01:32.412Z,2.08
2022-08-30T18:04:01.711Z,3.10
2022-08-30T18:06:29.699Z,3.08
2022-08-30T18:08:56.792Z,2.70
2022-08-30T18:11:23.637Z,2.75
2022-08-30T18:13:50.382Z,2.92
2022-08-30T18:16:21.477Z,1.67
2022-08-30T18:18:57.261Z,1.55
2022-08-30T18:21:25.453Z,1.85
2022-08-30T18:23:56.207Z,2.55
2022-08-30T18:26:24.284Z,3.08
2022-08-30T18:28:51.625Z,3.92
2022-08-30T18:31:18.449Z,2.05
2022-08-30T18:33:45.800Z,2.53
2022-08-30T18:36:13.446Z,3.03
2022-08-30T18:38:42.614Z,2.42
2022-08-30T18:41:16.147Z,1.75
2022-08-30T18:43:43.950Z,4.07
2022-08-30T18:46:16.807Z,2.17
2022-08-30T18:48:46.066Z,1.85
2022-08-30T18:51:21.393Z,2.30
2022-08-30T18:53:49.797Z,2.47
2022-08-30T18:56:17.296Z,2.17
2022-08-30T18:58:47.433Z,1.02
2022-08-30T19:01:20.723Z,2.05
2022-08-30T19:03:49.480Z,1.02
2022-08-30T19:06:16.534Z,3.03
2022-08-30T19:08:45.849Z,3.22
2022-08-30T19:11:12.883Z,1.52
2022-08-30T19:13:39.965Z,2.42
2022-08-30T19:16:08.048Z,2.08
2022-08-30T19:18:39.091Z,2.50
2022-08-30T19:21:06.907Z,1.58
2022-08-30T19:23:40.875Z,3.05
2022-08-30T19:26:07.992Z,3.80
2022-08-30T19:28:38.312Z,4.53
2022-08-30T19:31:06.477Z,2.72
2022-08-30T19:33:34.523Z,3.60
2022-08-30T19:36:01.766Z,1.88
2022-08-30T19:38:28.603Z,1.92
2022-08-30T19:41:00.302Z,5.22
2022-08-30T19:43:30.733Z,2.17
2022-08-30T19:46:00.743Z,2.00
2022-08-30T19:48:32.703Z,1.70
2022-08-30T19:51:08.465Z,2.40
2022-08-30T19:53:36.359Z,3.25
2022-08-30T19:56:03.522Z,1.95
2022-08-30T19:58:30.644Z,3.13
2022-08-30T20:01:10.661Z,2.50
2022-08-30T20:03:39.850Z,2.13
2022-08-30T20:06:08.925Z,5.72
2022-08-30T20:08:36.691Z,2.60
2022-08-30T20:11:05.028Z,2.28
2022-08-30T20:13:33.817Z,7.55
2022-08-30T20:16:01.445Z,3.55
2022-08-30T20:18:28.892Z,3.03
2022-08-30T20:20:56.457Z,2.80
2022-08-30T20:23:24.607Z,2.97
2022-08-30T20:25:55.319Z,5.35
2022-08-30T20:28:24.598Z,2.35
2022-08-30T20:30:53.269Z,4.78
2022-08-30T20:33:22.298Z,2.30
2022-08-30T20:35:50.057Z,3.05
2022-08-30T20:38:22.383Z,4.55
2022-08-30T20:40:54.857Z,3.33
2022-08-30T20:43:25.573Z,4.45
2022-08-30T20:45:53.374Z,3.50
2022-08-30T20:48:20.451Z,6.25
2022-08-30T20:50:47.716Z,4.07
2022-08-30T20:53:15.886Z,2.58
2022-08-30T20:55:45.101Z,4.22
2022-08-30T20:58:12.833Z,3.53
2022-08-30T21:00:40.483Z,4.13
2022-08-30T21:03:26.163Z,3.95
2022-08-30T21:05:55.577Z,3.78
2022-08-30T21:08:22.488Z,4.72
2022-08-30T21:10:49.635Z,2.92
2022-08-30T21:13:17.159Z,2.80
2022-08-30T21:15:45.994Z,3.45
2022-08-30T21:18:14.748Z,4.25
2022-08-30T21:20:41.920Z,4.78
2022-08-30T21:23:09.259Z,2.60
2022-08-30T21:25:43.478Z,3.80
2022-08-30T21:28:10.633Z,3.95
2022-08-30T21:30:38.034Z,3.22
2022-08-30T21:33:07.418Z,4.32
2022-08-30T21:35:55.226Z,3.13
2022-08-30T21:38:22.288Z,3.03
2022-08-30T21:40:49.314Z,3.33
2022-08-30T21:43:16.691Z,2.88
2022-08-30T21:45:45.140Z,9.43
2022-08-30T21:48:13.814Z,3.88
2022-08-30T21:50:42.883Z,2.85
2022-08-30T21:53:10.427Z,2.22
2022-08-30T21:55:37.378Z,2.60
2022-08-30T21:58:04.699Z,2.75
2022-08-30T22:00:33.428Z,2.63
2022-08-30T22:03:00.524Z,2.60
2022-08-30T22:05:27.440Z,2.60
2022-08-30T22:07:54.191Z,3.05
2022-08-30T22:10:21.096Z,2.97
2022-08-30T22:12:47.998Z,3.72
2022-08-30T22:15:15.387Z,2.30
2022-08-30T22:17:44.519Z,2.88
2022-08-30T22:20:11.953Z,2.55
2022-08-30T22:22:45.666Z,2.10
2022-08-30T22:25:12.968Z,2.63
2022-08-30T22:27:39.864Z,2.10
2022-08-30T22:30:07.439Z,2.67
2022-08-30T22:32:34.327Z,3.03
2022-08-30T22:35:01.136Z,2.03
2022-08-30T22:37:29.022Z,2.95
2022-08-30T22:39:55.813Z,6.15
2022-08-30T22:42:22.648Z,4.82
2022-08-30T22:44:49.457Z,3.53
2022-08-30T22:47:16.260Z,2.25
2022-08-30T22:49:43.033Z,2.20
2022-08-30T22:52:09.862Z,3.22
2022-08-30T22:54:37.759Z,3.13
2022-08-30T22:57:04.806Z,5.30
2022-08-30T22:59:32.114Z,2.28
2022-08-30T23:01:59.783Z,3.92
2022-08-30T23:04:26.693Z,1.95
2022-08-30T23:06:53.600Z,3.20
2022-08-30T23:09:20.359Z,2.40
2022-08-30T23:11:47.217Z,2.00
2022-08-30T23:14:14.058Z,2.80
2022-08-30T23:16:40.914Z,2.35
2022-08-30T23:19:07.717Z,2.03
2022-08-30T23:21:34.551Z,4.97
2022-08-30T23:24:20.079Z,5.00
2022-08-30T23:27:06.078Z,2.53
2022-08-30T23:29:53.575Z,5.40
2022-08-30T23:32:40.583Z,2.05
2022-08-30T23:35:30.284Z,7.57
2022-08-30T23:38:18.355Z,1.88
2022-08-30T23:41:03.775Z,2.40
2022-08-30T23:43:49.275Z,5.78
2022-08-30T23:46:35.305Z,1.95
2022-08-30T23:49:21.314Z,2.08
2022-08-30T23:52:06.736Z,2.40
2022-08-30T23:54:52.253Z,3.65
2022-08-30T23:57:44.982Z,4.40
